sensor_id;sensor_type;location;lat;lon;timestamp;P1;durP1;ratioP1;P2;durP2;ratioP2
6663;SDS011;58749;48.022;10.922;2023-01-10T00:01:05;1.70;;;0.93;;
6663;SDS011;58749;48.022;10.922;2023-01-10T00:03:34;2.72;;;0.75;;
6663;SDS011;58749;48.022;10.922;2023-01-10T00:06:02;1.33;;;0.80;;
6663;SDS011;58749;48.022;10.922;2023-01-10T00:08:30;1.17;;;0.70;;
6663;SDS011;58749;48.022;10.922;2023-01-10T00:10:58;1.20;;;0.70;;
6663;SDS011;58749;48.022;10.922;2023-01-10T00:13:48;1.33;;;0.52;;
6663;SDS011;58749;48.022;10.922;2023-01-10T00:16:18;3.25;;;0.88;;
6663;SDS011;58749;48.022;10.922;2023-01-10T00:18:46;4.25;;;1.08;;
6663;SDS011;58749;48.022;10.922;2023-01-10T00:21:14;2.47;;;0.85;;
6663;SDS011;58749;48.022;10.922;2023-01-10T00:23:43;1.20;;;0.50;;
6663;SDS011;58749;48.022;10.922;2023-01-10T00:26:14;1.17;;;0.57;;
6663;SDS011;58749;48.022;10.922;2023-01-10T00:28:42;1.90;;;0.70;;
6663;SDS011;58749;48.022;10.922;2023-01-10T00:31:11;2.33;;;0.80;;
6663;SDS011;58749;48.022;10.922;2023-01-10T00:33:41;3.90;;;0.80;;
6663;SDS011;58749;48.022;10.922;2023-01-10T00:36:09;0.85;;;0.60;;
6663;SDS011;58749;48.022;10.922;2023-01-10T00:38:37;2.33;;;0.70;;
6663;SDS011;58749;48.022;10.922;2023-01-10T00:41:05;1.63;;;0.70;;
6663;SDS011;58749;48.022;10.922;2023-01-10T00:43:54;3.45;;;0.90;;
6663;SDS011;58749;48.022;10.922;2023-01-10T00:46:25;2.10;;;0.68;;
6663;SDS011;58749;48.022;10.922;2023-01-10T00:48:53;0.98;;;0.60;;
6663;SDS011;58749;48.022;10.922;2023-01-10T00:51:22;2.78;;;0.75;;
6663;SDS011;58749;48.022;10.922;2023-01-10T00:53:50;1.65;;;0.85;;
6663;SDS011;58749;48.022;10.922;2023-01-10T00:56:18;1.42;;;0.80;;
6663;SDS011;58749;48.022;10.922;2023-01-10T00:58:46;2.55;;;0.77;;
6663;SDS011;58749;48.022;10.922;2023-01-10T01:01:14;2.47;;;0.73;;
6663;SDS011;58749;48.022;10.922;2023-01-10T01:03:43;1.75;;;0.80;;
6663;SDS011;58749;48.022;10.922;2023-01-10T01:06:11;2.28;;;0.88;;
6663;SDS011;58749;48.022;10.922;2023-01-10T01:08:39;2.53;;;0.90;;
6663;SDS011;58749;48.022;10.922;2023-01-10T01:11:07;2.38;;;0.80;;
6663;SDS011;58749;48.022;10.922;2023-01-10T01:13:35;2.65;;;1.10;;
6663;SDS011;58749;48.022;10.922;2023-01-10T01:16:03;0.98;;;0.70;;
6663;SDS011;58749;48.022;10.922;2023-01-10T01:18:31;1.45;;;0.98;;
6663;SDS011;58749;48.022;10.922;2023-01-10T01:21:01;1.50;;;0.70;;
6663;SDS011;58749;48.022;10.922;2023-01-10T01:23:32;1.50;;;0.85;;
6663;SDS011;58749;48.022;10.922;2023-01-10T01:26:00;1.77;;;0.73;;
6663;SDS011;58749;48.022;10.922;2023-01-10T01:28:28;1.38;;;0.70;;
6663;SDS011;58749;48.022;10.922;2023-01-10T01:30:56;3.47;;;1.00;;
6663;SDS011;58749;48.022;10.922;2023-01-10T01:33:24;2.38;;;0.70;;
6663;SDS011;58749;48.022;10.922;2023-01-10T01:35:52;1.60;;;0.88;;
6663;SDS011;58749;48.022;10.922;2023-01-10T01:38:22;1.60;;;0.60;;
6663;SDS011;58749;48.022;10.922;2023-01-10T01:40:50;1.58;;;0.90;;
6663;SDS011;58749;48.022;10.922;2023-01-10T01:43:20;1.63;;;0.75;;
6663;SDS011;58749;48.022;10.922;2023-01-10T01:45:50;0.60;;;0.52;;
6663;SDS011;58749;48.022;10.922;2023-01-10T01:48:23;2.13;;;0.60;;
6663;SDS011;58749;48.022;10.922;2023-01-10T01:51:03;1.50;;;0.75;;
6663;SDS011;58749;48.022;10.922;2023-01-10T01:53:39;2.65;;;0.55;;
6663;SDS011;58749;48.022;10.922;2023-01-10T01:56:11;3.60;;;0.47;;
6663;SDS011;58749;48.022;10.922;2023-01-10T01:58:43;0.93;;;0.80;;
6663;SDS011;58749;48.022;10.922;2023-01-10T02:01:15;2.05;;;0.70;;
6663;SDS011;58749;48.022;10.922;2023-01-10T02:03:45;1.23;;;0.55;;
6663;SDS011;58749;48.022;10.922;2023-01-10T02:06:16;1.55;;;0.50;;
6663;SDS011;58749;48.022;10.922;2023-01-10T02:08:48;1.98;;;0.60;;
6663;SDS011;58749;48.022;10.922;2023-01-10T02:11:19;0.73;;;0.40;;
6663;SDS011;58749;48.022;10.922;2023-01-10T02:13:47;0.80;;;0.60;;
6663;SDS011;58749;48.022;10.922;2023-01-10T02:16:17;2.25;;;0.50;;
6663;SDS011;58749;48.022;10.922;2023-01-10T02:18:45;0.43;;;0.43;;
6663;SDS011;58749;48.022;10.922;2023-01-10T02:21:18;1.77;;;0.40;;
6663;SDS011;58749;48.022;10.922;2023-01-10T02:27:20;0.70;;;0.50;;
6663;SDS011;58749;48.022;10.922;2023-01-10T02:30:15;0.50;;;0.50;;
6663;SDS011;58749;48.022;10.922;2023-01-10T02:33:02;1.27;;;0.50;;
6663;SDS011;58749;48.022;10.922;2023-01-10T02:35:48;0.98;;;0.50;;
6663;SDS011;58749;48.022;10.922;2023-01-10T02:38:31;1.35;;;0.75;;
6663;SDS011;58749;48.022;10.922;2023-01-10T02:41:07;0.65;;;0.55;;
6663;SDS011;58749;48.022;10.922;2023-01-10T02:43:43;1.25;;;0.60;;
6663;SDS011;58749;48.022;10.922;2023-01-10T02:46:17;1.50;;;0.80;;
6663;SDS011;58749;48.022;10.922;2023-01-10T02:48:52;0.85;;;0.50;;
6663;SDS011;58749;48.022;10.922;2023-01-10T02:51:21;1.15;;;0.60;;
6663;SDS011;58749;48.022;10.922;2023-01-10T02:53:53;1.85;;;0.90;;
6663;SDS011;58749;48.022;10.922;2023-01-10T02:56:31;0.90;;;0.80;;
6663;SDS011;58749;48.022;10.922;2023-01-10T03:02:13;2.17;;;0.85;;
6663;SDS011;58749;48.022;10.922;2023-01-10T03:04:51;0.90;;;0.90;;
6663;SDS011;58749;48.022;10.922;2023-01-10T03:07:30;0.82;;;0.80;;
6663;SDS011;58749;48.022;10.922;2023-01-10T03:10:02;1.42;;;0.60;;
6663;SDS011;58749;48.022;10.922;2023-01-10T03:12:36;1.23;;;1.05;;
6663;SDS011;58749;48.022;10.922;2023-01-10T03:15:09;1.13;;;0.60;;
6663;SDS011;58749;48.022;10.922;2023-01-10T03:17:40;1.42;;;1.00;;
6663;SDS011;58749;48.022;10.922;2023-01-10T03:20:11;0.98;;;0.68;;
6663;SDS011;58749;48.022;10.922;2023-01-10T03:22:40;2.10;;;0.88;;
6663;SDS011;58749;48.022;10.922;2023-01-10T03:25:09;0.65;;;0.65;;
6663;SDS011;58749;48.022;10.922;2023-01-10T03:27:42;0.68;;;0.65;;
6663;SDS011;58749;48.022;10.922;2023-01-10T03:30:16;1.45;;;0.90;;
6663;SDS011;58749;48.022;10.922;2023-01-10T03:32:50;1.00;;;0.90;;
6663;SDS011;58749;48.022;10.922;2023-01-10T03:35:20;2.55;;;1.05;;
6663;SDS011;58749;48.022;10.922;2023-01-10T03:37:52;2.65;;;0.93;;
6663;SDS011;58749;48.022;10.922;2023-01-10T03:40:25;1.58;;;1.02;;
6663;SDS011;58749;48.022;10.922;2023-01-10T03:43:02;1.20;;;1.10;;
6663;SDS011;58749;48.022;10.922;2023-01-10T03:45:54;1.67;;;1.00;;
6663;SDS011;58749;48.022;10.922;2023-01-10T03:48:28;1.25;;;1.00;;
6663;SDS011;58749;48.022;10.922;2023-01-10T03:51:01;1.23;;;0.98;;
6663;SDS011;58749;48.022;10.922;2023-01-10T03:53:31;1.63;;;1.10;;
6663;SDS011;58749;48.022;10.922;2023-01-10T03:56:00;1.20;;;1.10;;
6663;SDS011;58749;48.022;10.922;2023-01-10T03:58:28;2.00;;;1.00;;
6663;SDS011;58749;48.022;10.922;2023-01-10T04:00:57;1.33;;;0.95;;
6663;SDS011;58749;48.022;10.922;2023-01-10T04:03:25;3.58;;;1.10;;
6663;SDS011;58749;48.022;10.922;2023-01-10T04:05:53;1.02;;;0.93;;
6663;SDS011;58749;48.022;10.922;2023-01-10T04:08:22;2.08;;;1.10;;
6663;SDS011;58749;48.022;10.922;2023-01-10T04:10:50;1.30;;;1.10;;
6663;SDS011;58749;48.022;10.922;2023-01-10T04:13:18;1.55;;;1.42;;
6663;SDS011;58749;48.022;10.922;2023-01-10T04:15:46;0.70;;;0.70;;
6663;SDS011;58749;48.022;10.922;2023-01-10T04:18:14;1.10;;;1.00;;
6663;SDS011;58749;48.022;10.922;2023-01-10T04:20:42;1.27;;;1.00;;
6663;SDS011;58749;48.022;10.922;2023-01-10T04:23:10;1.17;;;1.08;;
6663;SDS011;58749;48.022;10.922;2023-01-10T04:25:39;1.20;;;0.95;;
6663;SDS011;58749;48.022;10.922;2023-01-10T04:28:07;1.00;;;1.00;;
6663;SDS011;58749;48.022;10.922;2023-01-10T04:30:35;0.80;;;0.80;;
6663;SDS011;58749;48.022;10.922;2023-01-10T04:33:03;0.70;;;0.70;;
6663;SDS011;58749;48.022;10.922;2023-01-10T04:35:32;0.88;;;0.75;;
6663;SDS011;58749;48.022;10.922;2023-01-10T04:38:00;2.15;;;1.85;;
6663;SDS011;58749;48.022;10.922;2023-01-10T04:40:28;0.90;;;0.90;;
6663;SDS011;58749;48.022;10.922;2023-01-10T04:42:58;0.80;;;0.80;;
6663;SDS011;58749;48.022;10.922;2023-01-10T04:45:26;1.42;;;0.98;;
6663;SDS011;58749;48.022;10.922;2023-01-10T04:47:54;1.45;;;1.30;;
6663;SDS011;58749;48.022;10.922;2023-01-10T04:50:22;1.75;;;1.20;;
6663;SDS011;58749;48.022;10.922;2023-01-10T04:52:50;1.88;;;1.60;;
6663;SDS011;58749;48.022;10.922;2023-01-10T04:55:18;3.63;;;1.92;;
6663;SDS011;58749;48.022;10.922;2023-01-10T04:57:46;2.05;;;1.60;;
6663;SDS011;58749;48.022;10.922;2023-01-10T05:00:16;3.95;;;2.22;;
6663;SDS011;58749;48.022;10.922;2023-01-10T05:02:44;5.43;;;2.88;;
6663;SDS011;58749;48.022;10.922;2023-01-10T05:05:12;4.22;;;2.55;;
6663;SDS011;58749;48.022;10.922;2023-01-10T05:07:40;3.88;;;2.22;;
6663;SDS011;58749;48.022;10.922;2023-01-10T05:10:12;3.60;;;1.67;;
6663;SDS011;58749;48.022;10.922;2023-01-10T05:12:41;4.78;;;2.80;;
6663;SDS011;58749;48.022;10.922;2023-01-10T05:15:09;3.35;;;2.22;;
6663;SDS011;58749;48.022;10.922;2023-01-10T05:17:39;3.58;;;2.40;;
6663;SDS011;58749;48.022;10.922;2023-01-10T05:20:07;2.90;;;1.70;;
6663;SDS011;58749;48.022;10.922;2023-01-10T05:22:36;3.28;;;2.08;;
6663;SDS011;58749;48.022;10.922;2023-01-10T05:25:04;3.22;;;2.08;;
6663;SDS011;58749;48.022;10.922;2023-01-10T05:27:33;2.97;;;1.83;;
6663;SDS011;58749;48.022;10.922;2023-01-10T05:30:00;2.55;;;1.75;;
6663;SDS011;58749;48.022;10.922;2023-01-10T05:32:28;3.03;;;2.17;;
6663;SDS011;58749;48.022;10.922;2023-01-10T05:34:58;1.90;;;1.45;;
6663;SDS011;58749;48.022;10.922;2023-01-10T05:37:26;2.28;;;1.40;;
6663;SDS011;58749;48.022;10.922;2023-01-10T05:39:54;2.95;;;1.55;;
6663;SDS011;58749;48.022;10.922;2023-01-10T05:42:22;1.90;;;1.38;;
6663;SDS011;58749;48.022;10.922;2023-01-10T05:44:50;1.42;;;1.00;;
6663;SDS011;58749;48.022;10.922;2023-01-10T05:47:18;1.00;;;0.93;;
6663;SDS011;58749;48.022;10.922;2023-01-10T05:49:46;1.45;;;0.88;;
6663;SDS011;58749;48.022;10.922;2023-01-10T05:52:15;1.15;;;1.02;;
6663;SDS011;58749;48.022;10.922;2023-01-10T05:54:43;1.58;;;0.98;;
6663;SDS011;58749;48.022;10.922;2023-01-10T05:57:11;1.40;;;0.98;;
6663;SDS011;58749;48.022;10.922;2023-01-10T05:59:39;1.73;;;0.90;;
6663;SDS011;58749;48.022;10.922;2023-01-10T06:02:07;1.10;;;1.00;;
6663;SDS011;58749;48.022;10.922;2023-01-10T06:04:36;1.83;;;0.80;;
6663;SDS011;58749;48.022;10.922;2023-01-10T06:07:04;2.20;;;1.13;;
6663;SDS011;58749;48.022;10.922;2023-01-10T06:09:33;1.88;;;1.02;;
6663;SDS011;58749;48.022;10.922;2023-01-10T06:12:01;1.85;;;1.20;;
6663;SDS011;58749;48.022;10.922;2023-01-10T06:14:29;1.50;;;1.10;;
6663;SDS011;58749;48.022;10.922;2023-01-10T06:16:57;1.60;;;1.30;;
6663;SDS011;58749;48.022;10.922;2023-01-10T06:19:25;2.60;;;1.25;;
6663;SDS011;58749;48.022;10.922;2023-01-10T06:21:53;2.97;;;1.80;;
6663;SDS011;58749;48.022;10.922;2023-01-10T06:24:21;2.53;;;1.23;;
6663;SDS011;58749;48.022;10.922;2023-01-10T06:26:50;1.75;;;1.27;;
6663;SDS011;58749;48.022;10.922;2023-01-10T06:29:18;1.75;;;0.93;;
6663;SDS011;58749;48.022;10.922;2023-01-10T06:31:46;2.22;;;0.98;;
6663;SDS011;58749;48.022;10.922;2023-01-10T06:34:14;1.38;;;1.20;;
6663;SDS011;58749;48.022;10.922;2023-01-10T06:36:42;2.15;;;1.33;;
6663;SDS011;58749;48.022;10.922;2023-01-10T06:39:10;2.35;;;1.50;;
6663;SDS011;58749;48.022;10.922;2023-01-10T06:41:38;1.33;;;1.20;;
6663;SDS011;58749;48.022;10.922;2023-01-10T06:44:08;5.80;;;1.20;;
6663;SDS011;58749;48.022;10.922;2023-01-10T06:46:36;2.75;;;1.95;;
6663;SDS011;58749;48.022;10.922;2023-01-10T06:49:04;2.33;;;1.40;;
6663;SDS011;58749;48.022;10.922;2023-01-10T06:51:32;2.10;;;1.38;;
6663;SDS011;58749;48.022;10.922;2023-01-10T06:53:59;1.80;;;1.13;;
6663;SDS011;58749;48.022;10.922;2023-01-10T06:56:28;2.53;;;1.33;;
6663;SDS011;58749;48.022;10.922;2023-01-10T06:58:56;4.20;;;1.35;;
6663;SDS011;58749;48.022;10.922;2023-01-10T07:01:25;2.83;;;1.60;;
6663;SDS011;58749;48.022;10.922;2023-01-10T07:03:53;1.85;;;1.50;;
6663;SDS011;58749;48.022;10.922;2023-01-10T07:06:21;2.40;;;1.48;;
6663;SDS011;58749;48.022;10.922;2023-01-10T07:08:49;3.25;;;1.92;;
6663;SDS011;58749;48.022;10.922;2023-01-10T07:11:17;4.13;;;1.85;;
6663;SDS011;58749;48.022;10.922;2023-01-10T07:13:45;3.72;;;2.08;;
6663;SDS011;58749;48.022;10.922;2023-01-10T07:16:14;4.85;;;1.73;;
6663;SDS011;58749;48.022;10.922;2023-01-10T07:18:44;2.35;;;1.48;;
6663;SDS011;58749;48.022;10.922;2023-01-10T07:21:12;2.47;;;1.30;;
6663;SDS011;58749;48.022;10.922;2023-01-10T07:23:42;1.40;;;1.20;;
6663;SDS011;58749;48.022;10.922;2023-01-10T07:26:10;2.83;;;1.42;;
6663;SDS011;58749;48.022;10.922;2023-01-10T07:28:43;1.73;;;1.30;;
6663;SDS011;58749;48.022;10.922;2023-01-10T07:31:11;3.25;;;1.20;;
6663;SDS011;58749;48.022;10.922;2023-01-10T07:33:39;2.30;;;1.17;;
6663;SDS011;58749;48.022;10.922;2023-01-10T07:36:09;2.88;;;1.10;;
6663;SDS011;58749;48.022;10.922;2023-01-10T07:38:37;1.23;;;1.13;;
6663;SDS011;58749;48.022;10.922;2023-01-10T07:41:05;3.55;;;1.10;;
6663;SDS011;58749;48.022;10.922;2023-01-10T07:43:33;1.67;;;1.10;;
6663;SDS011;58749;48.022;10.922;2023-01-10T07:46:04;4.32;;;1.33;;
6663;SDS011;58749;48.022;10.922;2023-01-10T07:48:35;3.08;;;1.00;;
6663;SDS011;58749;48.022;10.922;2023-01-10T07:51:03;3.08;;;1.10;;
6663;SDS011;58749;48.022;10.922;2023-01-10T07:53:33;1.80;;;1.20;;
6663;SDS011;58749;48.022;10.922;2023-01-10T07:56:02;2.60;;;1.27;;
6663;SDS011;58749;48.022;10.922;2023-01-10T07:58:30;3.90;;;1.35;;
6663;SDS011;58749;48.022;10.922;2023-01-10T08:00:59;1.58;;;0.95;;
6663;SDS011;58749;48.022;10.922;2023-01-10T08:03:28;7.72;;;1.75;;
6663;SDS011;58749;48.022;10.922;2023-01-10T08:05:58;1.88;;;1.30;;
6663;SDS011;58749;48.022;10.922;2023-01-10T08:08:27;3.10;;;1.20;;
6663;SDS011;58749;48.022;10.922;2023-01-10T08:10:57;4.22;;;1.48;;
6663;SDS011;58749;48.022;10.922;2023-01-10T08:13:27;2.65;;;1.35;;
6663;SDS011;58749;48.022;10.922;2023-01-10T08:15:55;3.38;;;2.13;;
6663;SDS011;58749;48.022;10.922;2023-01-10T08:18:24;2.55;;;1.50;;
6663;SDS011;58749;48.022;10.922;2023-01-10T08:20:53;2.30;;;1.45;;
6663;SDS011;58749;48.022;10.922;2023-01-10T08:23:21;1.70;;;1.25;;
6663;SDS011;58749;48.022;10.922;2023-01-10T08:25:49;6.60;;;1.40;;
6663;SDS011;58749;48.022;10.922;2023-01-10T08:28:19;2.53;;;1.60;;
6663;SDS011;58749;48.022;10.922;2023-01-10T08:30:47;2.92;;;1.75;;
6663;SDS011;58749;48.022;10.922;2023-01-10T08:33:20;3.22;;;1.50;;
6663;SDS011;58749;48.022;10.922;2023-01-10T08:35:49;3.53;;;1.63;;
6663;SDS011;58749;48.022;10.922;2023-01-10T08:38:18;6.18;;;1.45;;
6663;SDS011;58749;48.022;10.922;2023-01-10T08:40:46;2.17;;;1.60;;
6663;SDS011;58749;48.022;10.922;2023-01-10T08:43:14;2.58;;;1.33;;
6663;SDS011;58749;48.022;10.922;2023-01-10T08:45:43;5.38;;;1.52;;
6663;SDS011;58749;48.022;10.922;2023-01-10T08:48:12;3.92;;;1.45;;
6663;SDS011;58749;48.022;10.922;2023-01-10T08:50:40;5.25;;;2.38;;
6663;SDS011;58749;48.022;10.922;2023-01-10T08:53:08;1.85;;;1.40;;
6663;SDS011;58749;48.022;10.922;2023-01-10T08:55:36;2.10;;;1.35;;
6663;SDS011;58749;48.022;10.922;2023-01-10T08:58:04;1.67;;;1.20;;
6663;SDS011;58749;48.022;10.922;2023-01-10T09:00:32;7.05;;;2.45;;
6663;SDS011;58749;48.022;10.922;2023-01-10T09:03:05;2.65;;;1.00;;
6663;SDS011;58749;48.022;10.922;2023-01-10T09:05:33;7.85;;;1.48;;
6663;SDS011;58749;48.022;10.922;2023-01-10T09:08:02;1.98;;;0.93;;
6663;SDS011;58749;48.022;10.922;2023-01-10T09:10:30;1.98;;;1.00;;
6663;SDS011;58749;48.022;10.922;2023-01-10T09:12:58;3.15;;;1.17;;
6663;SDS011;58749;48.022;10.922;2023-01-10T09:15:28;4.05;;;1.00;;
6663;SDS011;58749;48.022;10.922;2023-01-10T09:17:58;3.05;;;1.10;;
6663;SDS011;58749;48.022;10.922;2023-01-10T09:20:29;7.72;;;1.70;;
6663;SDS011;58749;48.022;10.922;2023-01-10T09:22:58;3.50;;;1.40;;
6663;SDS011;58749;48.022;10.922;2023-01-10T09:25:30;3.75;;;1.33;;
6663;SDS011;58749;48.022;10.922;2023-01-10T09:27:58;5.55;;;1.67;;
6663;SDS011;58749;48.022;10.922;2023-01-10T09:30:28;3.70;;;1.13;;
6663;SDS011;58749;48.022;10.922;2023-01-10T09:32:57;3.17;;;1.50;;
6663;SDS011;58749;48.022;10.922;2023-01-10T09:35:25;1.48;;;0.98;;
6663;SDS011;58749;48.022;10.922;2023-01-10T09:37:57;4.97;;;1.70;;
6663;SDS011;58749;48.022;10.922;2023-01-10T09:40:30;2.92;;;1.35;;
6663;SDS011;58749;48.022;10.922;2023-01-10T09:43:08;3.85;;;2.22;;
6663;SDS011;58749;48.022;10.922;2023-01-10T09:45:44;7.20;;;2.00;;
6663;SDS011;58749;48.022;10.922;2023-01-10T09:48:19;5.10;;;1.60;;
6663;SDS011;58749;48.022;10.922;2023-01-10T09:50:59;3.75;;;1.77;;
6663;SDS011;58749;48.022;10.922;2023-01-10T09:53:41;4.25;;;1.13;;
6663;SDS011;58749;48.022;10.922;2023-01-10T09:56:11;6.50;;;1.27;;
6663;SDS011;58749;48.022;10.922;2023-01-10T09:58:41;6.15;;;1.23;;
6663;SDS011;58749;48.022;10.922;2023-01-10T10:01:11;6.20;;;1.38;;
6663;SDS011;58749;48.022;10.922;2023-01-10T10:03:44;2.70;;;1.30;;
6663;SDS011;58749;48.022;10.922;2023-01-10T10:06:18;6.00;;;1.23;;
6663;SDS011;58749;48.022;10.922;2023-01-10T10:08:50;5.47;;;1.23;;
6663;SDS011;58749;48.022;10.922;2023-01-10T10:11:34;7.88;;;1.40;;
6663;SDS011;58749;48.022;10.922;2023-01-10T10:14:15;3.17;;;1.27;;
6663;SDS011;58749;48.022;10.922;2023-01-10T10:16:59;5.82;;;1.40;;
6663;SDS011;58749;48.022;10.922;2023-01-10T10:19:47;3.47;;;1.02;;
6663;SDS011;58749;48.022;10.922;2023-01-10T10:22:25;5.10;;;1.60;;
6663;SDS011;58749;48.022;10.922;2023-01-10T10:25:03;5.65;;;2.10;;
6663;SDS011;58749;48.022;10.922;2023-01-10T10:27:46;8.98;;;2.00;;
6663;SDS011;58749;48.022;10.922;2023-01-10T10:30:29;3.33;;;1.48;;
6663;SDS011;58749;48.022;10.922;2023-01-10T10:33:13;2.38;;;1.30;;
6663;SDS011;58749;48.022;10.922;2023-01-10T10:36:01;4.68;;;1.60;;
6663;SDS011;58749;48.022;10.922;2023-01-10T10:38:32;3.55;;;1.05;;
6663;SDS011;58749;48.022;10.922;2023-01-10T10:41:07;8.70;;;1.80;;
6663;SDS011;58749;48.022;10.922;2023-01-10T10:43:42;5.40;;;1.42;;
6663;SDS011;58749;48.022;10.922;2023-01-10T10:46:14;4.18;;;1.48;;
6663;SDS011;58749;48.022;10.922;2023-01-10T10:48:47;12.43;;;1.75;;
6663;SDS011;58749;48.022;10.922;2023-01-10T10:51:22;5.13;;;1.00;;
6663;SDS011;58749;48.022;10.922;2023-01-10T10:53:53;6.40;;;1.75;;
6663;SDS011;58749;48.022;10.922;2023-01-10T10:56:24;4.50;;;1.55;;
6663;SDS011;58749;48.022;10.922;2023-01-10T10:58:54;5.40;;;1.27;;
6663;SDS011;58749;48.022;10.922;2023-01-10T11:01:24;2.92;;;1.40;;
6663;SDS011;58749;48.022;10.922;2023-01-10T11:03:53;6.65;;;1.20;;
6663;SDS011;58749;48.022;10.922;2023-01-10T11:06:24;5.07;;;1.55;;
6663;SDS011;58749;48.022;10.922;2023-01-10T11:08:55;7.00;;;1.70;;
6663;SDS011;58749;48.022;10.922;2023-01-10T11:11:26;6.40;;;1.35;;
6663;SDS011;58749;48.022;10.922;2023-01-10T11:13:57;4.83;;;1.70;;
6663;SDS011;58749;48.022;10.922;2023-01-10T11:16:27;2.58;;;1.02;;
6663;SDS011;58749;48.022;10.922;2023-01-10T11:21:47;4.55;;;1.20;;
6663;SDS011;58749;48.022;10.922;2023-01-10T11:24:28;7.53;;;1.73;;
6663;SDS011;58749;48.022;10.922;2023-01-10T11:27:00;7.43;;;1.63;;
6663;SDS011;58749;48.022;10.922;2023-01-10T11:29:33;7.10;;;1.67;;
6663;SDS011;58749;48.022;10.922;2023-01-10T11:32:08;6.38;;;1.35;;
6663;SDS011;58749;48.022;10.922;2023-01-10T11:34:40;7.88;;;1.38;;
6663;SDS011;58749;48.022;10.922;2023-01-10T11:37:19;4.65;;;1.08;;
6663;SDS011;58749;48.022;10.922;2023-01-10T11:39:56;8.52;;;1.42;;
6663;SDS011;58749;48.022;10.922;2023-01-10T11:42:47;6.07;;;1.27;;
6663;SDS011;58749;48.022;10.922;2023-01-10T11:45:26;6.25;;;1.40;;
6663;SDS011;58749;48.022;10.922;2023-01-10T11:47:58;3.92;;;1.35;;
6663;SDS011;58749;48.022;10.922;2023-01-10T11:50:34;6.30;;;1.40;;
6663;SDS011;58749;48.022;10.922;2023-01-10T11:53:04;4.13;;;1.10;;
6663;SDS011;58749;48.022;10.922;2023-01-10T11:55:35;6.13;;;2.22;;
6663;SDS011;58749;48.022;10.922;2023-01-10T11:58:06;6.13;;;1.75;;
6663;SDS011;58749;48.022;10.922;2023-01-10T12:00:38;7.40;;;1.40;;
6663;SDS011;58749;48.022;10.922;2023-01-10T12:03:19;6.47;;;2.65;;
6663;SDS011;58749;48.022;10.922;2023-01-10T12:05:52;12.00;;;1.70;;
6663;SDS011;58749;48.022;10.922;2023-01-10T12:08:23;5.97;;;1.42;;
6663;SDS011;58749;48.022;10.922;2023-01-10T12:10:57;6.83;;;1.20;;
6663;SDS011;58749;48.022;10.922;2023-01-10T12:13:29;4.72;;;1.23;;
6663;SDS011;58749;48.022;10.922;2023-01-10T12:16:18;6.60;;;1.70;;
6663;SDS011;58749;48.022;10.922;2023-01-10T12:18:49;4.38;;;1.95;;
6663;SDS011;58749;48.022;10.922;2023-01-10T12:21:24;3.28;;;0.95;;
6663;SDS011;58749;48.022;10.922;2023-01-10T12:23:57;10.02;;;1.17;;
6663;SDS011;58749;48.022;10.922;2023-01-10T12:26:30;2.88;;;0.80;;
6663;SDS011;58749;48.022;10.922;2023-01-10T12:29:04;4.75;;;0.80;;
6663;SDS011;58749;48.022;10.922;2023-01-10T12:31:35;5.55;;;1.00;;
6663;SDS011;58749;48.022;10.922;2023-01-10T12:34:09;2.20;;;1.15;;
6663;SDS011;58749;48.022;10.922;2023-01-10T12:36:50;6.45;;;1.25;;
6663;SDS011;58749;48.022;10.922;2023-01-10T12:39:25;5.90;;;1.08;;
6663;SDS011;58749;48.022;10.922;2023-01-10T12:44:50;2.65;;;1.13;;
6663;SDS011;58749;48.022;10.922;2023-01-10T12:47:27;3.08;;;1.05;;
6663;SDS011;58749;48.022;10.922;2023-01-10T12:49:59;3.95;;;0.85;;
6663;SDS011;58749;48.022;10.922;2023-01-10T12:52:33;7.50;;;1.17;;
6663;SDS011;58749;48.022;10.922;2023-01-10T12:55:11;5.05;;;1.00;;
6663;SDS011;58749;48.022;10.922;2023-01-10T12:57:41;5.25;;;1.30;;
6663;SDS011;58749;48.022;10.922;2023-01-10T13:00:20;7.13;;;1.02;;
6663;SDS011;58749;48.022;10.922;2023-01-10T13:02:51;5.35;;;1.10;;
6663;SDS011;58749;48.022;10.922;2023-01-10T13:05:23;3.15;;;1.05;;
6663;SDS011;58749;48.022;10.922;2023-01-10T13:07:53;4.20;;;1.08;;
6663;SDS011;58749;48.022;10.922;2023-01-10T13:10:26;3.25;;;0.93;;
6663;SDS011;58749;48.022;10.922;2023-01-10T13:12:58;4.63;;;1.10;;
6663;SDS011;58749;48.022;10.922;2023-01-10T13:15:33;3.28;;;0.80;;
6663;SDS011;58749;48.022;10.922;2023-01-10T13:18:14;7.00;;;1.13;;
6663;SDS011;58749;48.022;10.922;2023-01-10T13:20:46;3.63;;;1.33;;
6663;SDS011;58749;48.022;10.922;2023-01-10T13:23:25;7.82;;;2.17;;
6663;SDS011;58749;48.022;10.922;2023-01-10T13:25:57;5.35;;;1.00;;
6663;SDS011;58749;48.022;10.922;2023-01-10T13:28:28;5.35;;;2.03;;
6663;SDS011;58749;48.022;10.922;2023-01-10T13:30:59;4.45;;;1.20;;
6663;SDS011;58749;48.022;10.922;2023-01-10T13:33:31;4.55;;;1.20;;
6663;SDS011;58749;48.022;10.922;2023-01-10T13:36:09;10.65;;;1.40;;
6663;SDS011;58749;48.022;10.922;2023-01-10T13:38:46;3.47;;;1.20;;
6663;SDS011;58749;48.022;10.922;2023-01-10T13:44:09;4.20;;;1.00;;
6663;SDS011;58749;48.022;10.922;2023-01-10T13:46:47;1.52;;;0.70;;
6663;SDS011;58749;48.022;10.922;2023-01-10T13:49:24;6.60;;;0.88;;
6663;SDS011;58749;48.022;10.922;2023-01-10T13:52:27;4.88;;;0.88;;
6663;SDS011;58749;48.022;10.922;2023-01-10T13:54:57;3.65;;;1.48;;
6663;SDS011;58749;48.022;10.922;2023-01-10T13:57:47;3.55;;;0.95;;
6663;SDS011;58749;48.022;10.922;2023-01-10T14:00:20;3.35;;;1.00;;
6663;SDS011;58749;48.022;10.922;2023-01-10T14:03:09;4.63;;;0.90;;
6663;SDS011;58749;48.022;10.922;2023-01-10T14:06:09;4.65;;;1.23;;
6663;SDS011;58749;48.022;10.922;2023-01-10T14:08:49;5.75;;;1.23;;
6663;SDS011;58749;48.022;10.922;2023-01-10T14:11:19;4.35;;;0.88;;
6663;SDS011;58749;48.022;10.922;2023-01-10T14:13:50;4.50;;;1.13;;
6663;SDS011;58749;48.022;10.922;2023-01-10T14:16:34;5.70;;;1.00;;
6663;SDS011;58749;48.022;10.922;2023-01-10T14:19:25;2.53;;;1.00;;
6663;SDS011;58749;48.022;10.922;2023-01-10T14:22:23;3.25;;;0.98;;
6663;SDS011;58749;48.022;10.922;2023-01-10T14:25:15;6.40;;;0.98;;
6663;SDS011;58749;48.022;10.922;2023-01-10T14:27:48;3.88;;;0.70;;
6663;SDS011;58749;48.022;10.922;2023-01-10T14:30:21;4.07;;;1.15;;
6663;SDS011;58749;48.022;10.922;2023-01-10T14:32:52;3.85;;;1.20;;
6663;SDS011;58749;48.022;10.922;2023-01-10T14:35:26;5.72;;;1.13;;
6663;SDS011;58749;48.022;10.922;2023-01-10T14:37:58;3.00;;;0.85;;
6663;SDS011;58749;48.022;10.922;2023-01-10T14:40:32;4.50;;;0.90;;
6663;SDS011;58749;48.022;10.922;2023-01-10T14:43:07;3.97;;;0.85;;
6663;SDS011;58749;48.022;10.922;2023-01-10T14:45:38;3.83;;;0.90;;
6663;SDS011;58749;48.022;10.922;2023-01-10T14:53:56;3.08;;;1.20;;
6663;SDS011;58749;48.022;10.922;2023-01-10T14:56:27;4.07;;;1.10;;
6663;SDS011;58749;48.022;10.922;2023-01-10T14:58:56;5.63;;;1.58;;
6663;SDS011;58749;48.022;10.922;2023-01-10T15:01:25;8.25;;;1.80;;
6663;SDS011;58749;48.022;10.922;2023-01-10T15:03:56;7.47;;;1.40;;
6663;SDS011;58749;48.022;10.922;2023-01-10T15:06:25;6.13;;;1.35;;
6663;SDS011;58749;48.022;10.922;2023-01-10T15:08:54;4.68;;;1.00;;
6663;SDS011;58749;48.022;10.922;2023-01-10T15:11:29;4.22;;;1.05;;
6663;SDS011;58749;48.022;10.922;2023-01-10T15:13:59;3.47;;;1.08;;
6663;SDS011;58749;48.022;10.922;2023-01-10T15:16:32;5.82;;;1.02;;
6663;SDS011;58749;48.022;10.922;2023-01-10T15:19:02;5.25;;;0.90;;
6663;SDS011;58749;48.022;10.922;2023-01-10T15:21:31;7.03;;;0.98;;
6663;SDS011;58749;48.022;10.922;2023-01-10T15:24:00;1.30;;;0.80;;
6663;SDS011;58749;48.022;10.922;2023-01-10T15:26:49;2.00;;;0.77;;
6663;SDS011;58749;48.022;10.922;2023-01-10T15:29:19;3.95;;;0.90;;
6663;SDS011;58749;48.022;10.922;2023-01-10T15:31:50;6.32;;;1.08;;
6663;SDS011;58749;48.022;10.922;2023-01-10T15:34:21;8.23;;;1.48;;
6663;SDS011;58749;48.022;10.922;2023-01-10T15:36:54;3.53;;;0.82;;